Time;durP1;ratioP1;P1;durP2;ratioP2;P2;SDS_P1;SDS_P2;PMS_P1;PMS_P2;Temp;Humidity;BMP_temperature;BMP_pressure;BME280_temperature;BME280_humidity;BME280_pressure;Samples;Min_cycle;Max_cycle;Signal;HPM_P1;HPM_P2
2022/01/16 00:04:08;;;;;;;29.37;23.00;;;1.30;77.10;;;;;;5008560;28;20174;-80
2022/01/16 00:06:35;;;;;;;23.88;20.83;;;1.40;76.80;;;;;;5008857;28;20573;-80
2022/01/16 00:09:01;;;;;;;26.55;21.27;;;1.50;76.10;;;;;;5008142;28;20227;-81
2022/01/16 00:11:27;;;;;;;23.17;20.00;;;1.40;75.70;;;;;;5008547;28;20177;-81
2022/01/16 00:13:53;;;;;;;24.48;20.95;;;1.50;75.50;;;;;;5008206;28;20270;-83
2022/01/16 00:16:19;;;;;;;24.27;19.87;;;1.50;75.60;;;;;;5010029;28;20643;-82
2022/01/16 00:18:54;;;;;;;24.40;19.43;;;1.40;74.30;;;;;;5008720;28;20581;-82
2022/01/16 00:21:23;;;;;;;24.20;19.90;;;1.50;74.40;;;;;;5009112;28;20284;-82
2022/01/16 00:23:49;;;;;;;24.23;20.85;;;1.50;74.70;;;;;;5007775;28;20180;-82
2022/01/16 00:26:15;;;;;;;24.85;21.23;;;1.50;73.90;;;;;;5008358;28;20180;-81
2022/01/16 00:28:41;;;;;;;22.40;19.40;;;1.40;74.10;;;;;;5007948;28;20541;-81
2022/01/16 00:31:07;;;;;;;22.67;19.33;;;1.30;74.40;;;;;;5007141;28;20192;-81
2022/01/16 00:33:32;;;;;;;23.00;19.58;;;1.40;75.70;;;;;;5009638;28;20215;-82
2022/01/16 00:35:58;;;;;;;21.37;17.73;;;1.40;73.80;;;;;;5008676;28;20664;-82
2022/01/16 00:38:24;;;;;;;23.53;18.17;;;1.40;74.30;;;;;;5007701;28;20201;-82
2022/01/16 00:40:50;;;;;;;23.50;19.30;;;1.40;74.30;;;;;;5008758;28;20219;-82
2022/01/16 00:43:15;;;;;;;27.70;22.17;;;1.20;74.90;;;;;;5007460;28;20180;-81
2022/01/16 00:45:41;;;;;;;22.77;19.50;;;1.30;74.70;;;;;;5007775;28;20542;-80
2022/01/16 00:48:07;;;;;;;23.67;20.17;;;1.30;74.20;;;;;;5007675;28;20181;-82
2022/01/16 00:50:34;;;;;;;24.87;19.87;;;1.20;74.10;;;;;;5007959;28;20272;-82
2022/01/16 00:53:01;;;;;;;23.23;19.63;;;1.20;74.80;;;;;;5007453;28;20458;-81
2022/01/16 00:55:27;;;;;;;21.73;18.48;;;1.30;75.40;;;;;;5007660;28;20519;-81
2022/01/16 00:57:53;;;;;;;25.17;20.67;;;1.30;76.00;;;;;;5009355;28;20673;-80
2022/01/16 01:00:19;;;;;;;25.17;21.30;;;1.40;74.40;;;;;;5007110;28;20416;-81
2022/01/16 01:02:45;;;;;;;25.07;20.60;;;1.30;74.20;;;;;;5007648;28;20430;-80
2022/01/16 01:05:11;;;;;;;26.27;22.20;;;1.30;74.20;;;;;;5007851;28;20423;-80
2022/01/16 01:07:39;;;;;;;25.27;21.63;;;1.20;74.10;;;;;;5007998;28;20188;-81
2022/01/16 01:10:05;;;;;;;31.08;23.40;;;1.20;75.50;;;;;;5009368;28;20767;-81
2022/01/16 01:12:51;;;;;;;23.57;20.77;;;1.20;76.10;;;;;;5007973;28;20478;-81
2022/01/16 01:15:17;;;;;;;27.00;23.33;;;1.30;75.00;;;;;;5007523;28;20775;-81
2022/01/16 01:17:45;;;;;;;26.80;22.30;;;1.30;75.60;;;;;;5008307;28;20432;-81
2022/01/16 01:20:17;;;;;;;22.20;19.70;;;1.40;74.30;;;;;;5007853;28;20646;-81
2022/01/16 01:22:45;;;;;;;25.80;22.27;;;1.30;74.60;;;;;;5008065;28;20416;-81
2022/01/16 01:25:14;;;;;;;31.23;21.85;;;1.30;74.40;;;;;;5007691;28;20582;-82
2022/01/16 01:27:44;;;;;;;33.50;25.25;;;1.30;75.20;;;;;;5006873;28;20176;-81
2022/01/16 01:30:15;;;;;;;32.05;26.30;;;1.20;75.80;;;;;;5007585;28;20183;-81
2022/01/16 01:32:43;;;;;;;34.78;27.73;;;1.20;76.90;;;;;;5007578;28;20176;-82
2022/01/16 01:35:12;;;;;;;30.33;24.90;;;1.10;77.80;;;;;;5007776;28;20235;-81
2022/01/16 01:37:39;;;;;;;32.67;25.73;;;1.20;76.60;;;;;;5007334;28;20197;-82
2022/01/16 01:40:08;;;;;;;31.58;26.10;;;1.20;77.10;;;;;;5007344;28;20679;-79
2022/01/16 01:42:35;;;;;;;31.35;25.23;;;1.20;77.30;;;;;;5007934;28;20177;-80
2022/01/16 01:53:16;;;;;;;29.05;24.23;;;1.00;76.80;;;;;;5009330;28;20246;-82
2022/01/16 01:55:43;;;;;;;32.50;25.52;;;1.00;76.90;;;;;;5007260;28;20179;-81
2022/01/16 01:58:10;;;;;;;32.95;26.05;;;1.00;77.00;;;;;;5007545;28;20242;-82
2022/01/16 02:00:37;;;;;;;30.50;24.85;;;1.00;78.30;;;;;;5006905;28;20178;-81
2022/01/16 02:05:30;;;;;;;30.17;25.38;;;1.00;78.00;;;;;;5012035;28;20172;-82
2022/01/16 02:07:57;;;;;;;30.15;25.02;;;1.00;76.90;;;;;;5010305;28;20227;-82
2022/01/16 02:10:23;;;;;;;33.45;26.10;;;0.90;77.70;;;;;;5010851;28;20239;-81
2022/01/16 02:12:55;;;;;;;33.63;26.30;;;0.90;78.00;;;;;;5010678;28;20180;-81
2022/01/16 02:32:24;;;;;;;33.13;27.52;;;1.10;77.20;;;;;;5011670;28;20583;-82
2022/01/16 02:34:45;;;;;;;36.60;29.60;;;1.10;76.60;;;;;;5011259;28;20246;-81
2022/01/16 02:37:14;;;;;;;34.53;26.50;;;0.90;78.10;;;;;;5010186;28;20560;-82
2022/01/16 02:39:49;;;;;;;39.00;27.60;;;0.90;78.70;;;;;;5009770;28;20530;-81
2022/01/16 02:42:16;;;;;;;35.13;25.38;;;1.00;80.30;;;;;;5010042;28;20419;-81
2022/01/16 02:44:46;;;;;;;32.92;27.60;;;0.90;79.90;;;;;;5009766;28;20178;-82
2022/01/16 02:47:17;;;;;;;31.00;25.88;;;1.00;80.00;;;;;;5009936;28;20169;-82
2022/01/16 02:49:45;;;;;;;34.83;27.38;;;1.00;79.40;;;;;;5010622;28;20263;-82
2022/01/16 02:52:19;;;;;;;32.75;24.73;;;1.00;79.30;;;;;;5009953;28;20184;-82
2022/01/16 02:54:48;;;;;;;33.60;25.63;;;0.90;79.20;;;;;;5009765;28;20247;-81
2022/01/16 02:57:16;;;;;;;33.03;25.70;;;1.00;79.20;;;;;;5010842;28;20183;-82
2022/01/16 02:59:49;;;;;;;30.13;25.73;;;0.90;78.90;;;;;;5010306;28;20213;-81
2022/01/16 03:02:20;;;;;;;34.53;27.10;;;0.90;77.80;;;;;;5010418;28;20172;-82
2022/01/16 03:04:46;;;;;;;31.83;26.25;;;0.90;77.50;;;;;;5010385;28;20177;-82
2022/01/16 03:07:12;;;;;;;33.30;24.95;;;0.80;78.50;;;;;;5010514;28;20227;-81
2022/01/16 03:12:09;;;;;;;29.92;24.80;;;0.90;78.60;;;;;;5010036;28;20207;-81
2022/01/16 03:14:34;;;;;;;27.00;22.90;;;1.00;77.90;;;;;;5009415;28;20235;-82
2022/01/16 03:17:00;;;;;;;28.60;23.67;;;1.00;77.40;;;;;;5009438;28;20180;-82
2022/01/16 03:22:10;;;;;;;28.83;25.58;;;1.00;76.90;;;;;;5011394;28;20188;-82
2022/01/16 03:24:39;;;;;;;27.50;24.47;;;1.00;75.70;;;;;;5010033;28;20180;-81
2022/01/16 03:27:08;;;;;;;27.98;23.00;;;0.90;75.90;;;;;;5008280;28;20280;-82
2022/01/16 03:29:35;;;;;;;26.75;23.85;;;0.80;75.80;;;;;;5009642;28;20580;-81
2022/01/16 03:32:03;;;;;;;28.52;23.95;;;0.80;76.50;;;;;;5009031;28;20196;-81
2022/01/16 03:34:28;;;;;;;31.02;24.00;;;0.80;77.30;;;;;;5009576;28;20587;-82
2022/01/16 03:36:54;;;;;;;28.60;25.50;;;0.80;77.50;;;;;;5009597;28;20177;-81
2022/01/16 03:39:20;;;;;;;30.50;25.30;;;0.70;76.90;;;;;;5009751;28;20201;-81
2022/01/16 03:41:46;;;;;;;31.17;25.23;;;0.60;77.40;;;;;;5009110;28;20536;-82
2022/01/16 03:44:12;;;;;;;31.57;26.27;;;0.80;77.60;;;;;;5009023;28;20793;-82
2022/01/16 03:46:40;;;;;;;28.50;24.67;;;0.80;77.50;;;;;;5009195;28;20414;-81
2022/01/16 03:49:09;;;;;;;31.00;24.58;;;0.80;76.70;;;;;;5009225;28;20980;-82
2022/01/16 03:51:35;;;;;;;33.75;26.50;;;0.80;76.60;;;;;;5009827;28;20282;-82
2022/01/16 03:54:02;;;;;;;28.65;25.50;;;0.80;76.50;;;;;;5008772;28;20203;-82
2022/01/16 03:56:27;;;;;;;28.77;25.30;;;0.70;76.20;;;;;;5008743;28;20243;-82
2022/01/16 03:58:53;;;;;;;31.70;24.70;;;0.70;76.80;;;;;;5008075;28;20209;-82
2022/01/16 04:01:19;;;;;;;32.73;25.97;;;0.70;77.60;;;;;;5008145;28;20204;-82
2022/01/16 04:03:45;;;;;;;31.60;26.23;;;0.70;77.70;;;;;;5007966;28;20212;-81
2022/01/16 04:06:11;;;;;;;31.50;25.43;;;0.60;77.30;;;;;;5008169;28;20207;-82
2022/01/16 04:08:37;;;;;;;29.67;26.13;;;0.60;77.70;;;;;;5008991;28;20184;-82
2022/01/16 04:11:03;;;;;;;30.47;26.10;;;0.60;78.00;;;;;;5009322;28;20183;-81
2022/01/16 04:13:31;;;;;;;32.33;26.47;;;0.70;78.50;;;;;;5008796;28;20177;-82
2022/01/16 04:15:57;;;;;;;29.20;23.88;;;0.70;78.50;;;;;;5008907;28;20522;-82
2022/01/16 04:18:22;;;;;;;31.13;26.63;;;0.70;78.40;;;;;;5008822;28;20729;-82
2022/01/16 04:20:48;;;;;;;30.60;25.17;;;0.70;77.20;;;;;;5008343;28;20416;-82
2022/01/16 04:23:14;;;;;;;29.60;25.00;;;0.70;77.90;;;;;;5008924;28;20439;-81
2022/01/16 04:25:40;;;;;;;29.73;25.00;;;0.60;78.90;;;;;;5008631;28;20177;-82
2022/01/16 04:28:05;;;;;;;27.20;23.57;;;0.70;78.10;;;;;;5007283;28;20239;-83
2022/01/16 04:30:31;;;;;;;27.50;24.50;;;0.70;77.40;;;;;;5007780;28;20239;-82
2022/01/16 04:32:57;;;;;;;25.27;22.53;;;0.70;76.80;;;;;;5009048;28;20205;-81
2022/01/16 04:35:23;;;;;;;26.77;23.75;;;0.60;77.00;;;;;;5007615;28;20415;-82
2022/01/16 04:37:49;;;;;;;26.00;23.23;;;0.60;77.90;;;;;;5007599;28;20318;-81
2022/01/16 04:40:16;;;;;;;25.20;22.50;;;0.70;77.40;;;;;;5007212;28;20776;-82
2022/01/16 04:45:26;;;;;;;25.13;22.63;;;0.70;76.30;;;;;;5009149;28;20181;-82
2022/01/16 04:47:53;;;;;;;24.67;22.20;;;0.70;77.00;;;;;;5009035;28;20173;-81
2022/01/16 04:50:22;;;;;;;25.33;22.42;;;0.70;76.10;;;;;;5008287;28;20658;-82
2022/01/16 04:52:48;;;;;;;23.15;20.73;;;0.70;75.50;;;;;;5007798;28;20540;-82
2022/01/16 04:55:15;;;;;;;24.63;20.90;;;0.70;75.10;;;;;;5008884;28;20251;-82
2022/01/16 04:57:41;;;;;;;24.77;22.17;;;0.60;74.50;;;;;;5008636;28;20270;-82
2022/01/16 05:00:14;;;;;;;23.77;21.27;;;0.60;75.00;;;;;;5008694;28;20584;-82
2022/01/16 05:02:40;;;;;;;23.73;21.05;;;0.60;73.50;;;;;;5009293;28;20541;-82
2022/01/16 05:05:08;;;;;;;24.02;20.90;;;0.60;73.70;;;;;;4992878;28;20303;-81
2022/01/16 05:07:34;;;;;;;22.73;20.40;;;0.50;74.10;;;;;;5008199;28;20182;-82
2022/01/16 05:10:00;;;;;;;24.20;21.73;;;0.50;74.10;;;;;;5008608;28;20174;-82
2022/01/16 05:12:32;;;;;;;24.87;22.37;;;0.50;73.90;;;;;;5008971;28;20180;-81
2022/01/16 05:17:43;;;;;;;22.90;20.60;;;0.50;74.50;;;;;;5010962;28;20664;-81
2022/01/16 05:20:09;;;;;;;25.60;22.77;;;0.60;73.50;;;;;;5008418;28;20232;-81
2022/01/16 05:22:36;;;;;;;25.35;22.75;;;0.60;74.80;;;;;;5009044;28;20188;-81
2022/01/16 05:25:04;;;;;;;24.52;21.70;;;0.40;75.00;;;;;;5009411;28;20626;-80
2022/01/16 05:27:29;;;;;;;24.20;21.70;;;0.50;73.40;;;;;;5009248;28;20623;-80
2022/01/16 05:29:55;;;;;;;24.37;21.90;;;0.40;74.50;;;;;;5009612;28;20210;-81
2022/01/16 05:32:21;;;;;;;23.67;21.27;;;0.40;74.70;;;;;;5012672;28;20260;-82
2022/01/16 05:34:46;;;;;;;26.97;24.07;;;0.50;74.30;;;;;;5013748;28;20809;-80
2022/01/16 05:37:12;;;;;;;23.03;20.70;;;0.50;73.50;;;;;;5013236;28;20177;-80
2022/01/16 05:39:39;;;;;;;25.07;22.57;;;0.40;73.80;;;;;;5011023;28;20204;-81
2022/01/16 05:42:05;;;;;;;26.73;24.02;;;0.50;72.30;;;;;;5010281;28;20177;-81
2022/01/16 05:44:30;;;;;;;24.63;22.02;;;0.40;73.40;;;;;;5010377;28;20274;-82
2022/01/16 05:46:56;;;;;;;24.07;21.67;;;0.50;73.70;;;;;;5010059;28;20329;-82
2022/01/16 05:49:22;;;;;;;24.60;22.10;;;0.50;72.30;;;;;;5009564;28;20552;-81
2022/01/16 05:51:47;;;;;;;25.87;23.43;;;0.40;71.30;;;;;;5010028;28;20419;-82
2022/01/16 05:54:13;;;;;;;26.87;24.00;;;0.30;72.10;;;;;;5010089;28;20676;-81
2022/01/16 05:56:39;;;;;;;24.70;22.10;;;0.40;71.90;;;;;;5010966;28;20692;-82
2022/01/16 05:59:04;;;;;;;24.63;22.00;;;0.20;72.50;;;;;;5009503;28;20207;-80
2022/01/16 06:01:30;;;;;;;25.20;22.50;;;0.30;73.70;;;;;;5010406;28;20271;-82
2022/01/16 06:03:55;;;;;;;25.60;22.90;;;0.40;73.40;;;;;;5010141;28;20171;-82
2022/01/16 06:06:21;;;;;;;23.17;20.70;;;0.30;72.80;;;;;;5010816;28;20171;-82
2022/01/16 06:08:48;;;;;;;23.77;21.33;;;0.30;71.90;;;;;;5009542;28;20185;-81
2022/01/16 06:11:14;;;;;;;24.95;21.48;;;0.30;72.10;;;;;;5007629;28;20174;-82
2022/01/16 06:13:39;;;;;;;21.50;19.50;;;0.10;71.90;;;;;;5009066;28;20190;-81
2022/01/16 06:16:05;;;;;;;21.43;19.17;;;0.10;72.50;;;;;;4995756;28;20194;-82
2022/01/16 06:18:31;;;;;;;23.53;21.20;;;0.20;72.00;;;;;;4990254;28;20209;-83
2022/01/16 06:20:57;;;;;;;21.73;19.73;;;0.10;70.60;;;;;;4989900;28;20181;-82
2022/01/16 06:23:22;;;;;;;22.73;20.50;;;0.00;69.50;;;;;;5006203;28;20177;-83
2022/01/16 06:25:54;;;;;;;23.87;21.47;;;0.10;71.00;;;;;;5009561;28;20209;-83
2022/01/16 06:28:22;;;;;;;23.23;20.83;;;0.20;71.50;;;;;;4996700;28;20178;-83
2022/01/16 06:30:48;;;;;;;22.45;20.10;;;0.20;70.00;;;;;;4990007;28;20180;-83
2022/01/16 06:33:13;;;;;;;23.80;21.40;;;0.00;71.00;;;;;;4990481;28;20187;-82
2022/01/16 06:35:39;;;;;;;23.33;21.00;;;0.10;70.30;;;;;;4990444;28;20418;-82
2022/01/16 06:38:05;;;;;;;24.10;21.70;;;0.00;70.70;;;;;;4990377;28;20186;-83
2022/01/16 06:40:31;;;;;;;25.30;22.70;;;-0.30;70.80;;;;;;4989995;28;20628;-83
2022/01/16 06:42:57;;;;;;;23.70;21.20;;;-0.30;71.80;;;;;;4990371;28;20372;-82
2022/01/16 06:45:23;;;;;;;24.47;21.10;;;-0.20;72.90;;;;;;4990598;28;20179;-82
2022/01/16 06:47:48;;;;;;;24.67;22.27;;;-0.10;72.60;;;;;;4991568;28;20185;-82
2022/01/16 06:50:14;;;;;;;24.93;22.27;;;0.00;73.70;;;;;;4993864;28;20188;-82
2022/01/16 06:52:40;;;;;;;24.27;21.87;;;0.00;72.30;;;;;;4993996;28;20596;-83
2022/01/16 06:55:06;;;;;;;24.13;21.73;;;0.00;72.20;;;;;;4993283;28;20710;-82
2022/01/16 06:57:32;;;;;;;23.75;21.45;;;0.10;72.40;;;;;;4993830;28;20267;-83
2022/01/16 06:59:57;;;;;;;24.87;22.07;;;0.10;71.50;;;;;;4993261;28;20372;-82
2022/01/16 07:02:23;;;;;;;23.57;21.07;;;0.10;71.40;;;;;;4993286;28;20202;-82
2022/01/16 07:04:49;;;;;;;22.70;20.30;;;0.10;69.60;;;;;;4993545;28;20552;-82
2022/01/16 07:07:15;;;;;;;22.50;20.23;;;0.10;69.20;;;;;;4993588;28;20517;-83
2022/01/16 07:09:40;;;;;;;22.27;19.83;;;0.10;68.40;;;;;;4993226;28;20511;-82
2022/01/16 07:12:07;;;;;;;24.97;22.47;;;0.00;68.70;;;;;;4992826;28;20206;-82
2022/01/16 07:14:33;;;;;;;23.73;21.13;;;0.10;68.70;;;;;;4993632;28;20222;-81
2022/01/16 07:16:59;;;;;;;24.42;21.80;;;0.10;67.70;;;;;;4992583;28;20528;-81
2022/01/16 07:19:24;;;;;;;23.23;21.00;;;0.00;67.60;;;;;;4992648;28;20215;-80
2022/01/16 07:21:50;;;;;;;22.87;20.57;;;0.00;67.20;;;;;;4992695;28;20183;-79
2022/01/16 07:24:16;;;;;;;21.67;19.53;;;0.00;67.60;;;;;;4993394;28;20179;-80
2022/01/16 07:26:45;;;;;;;23.70;21.20;;;0.00;67.40;;;;;;4992203;28;20230;-80
2022/01/16 07:29:11;;;;;;;23.15;20.85;;;0.00;67.10;;;;;;4993323;28;20178;-84
2022/01/16 07:31:39;;;;;;;23.13;20.73;;;0.00;68.60;;;;;;4992822;28;20269;-82
2022/01/16 07:34:06;;;;;;;23.85;21.42;;;0.00;69.20;;;;;;4992611;28;20771;-83
2022/01/16 07:36:33;;;;;;;25.35;22.75;;;0.10;70.40;;;;;;4993665;28;20811;-83
2022/01/16 07:39:00;;;;;;;25.40;22.70;;;0.10;70.40;;;;;;4993150;28;20208;-83
2022/01/16 07:41:25;;;;;;;25.58;22.98;;;0.10;70.20;;;;;;4993125;28;20171;-83
2022/01/16 07:43:51;;;;;;;24.53;22.07;;;0.20;70.40;;;;;;4993031;28;20174;-84
2022/01/16 07:46:17;;;;;;;25.87;23.17;;;0.00;70.70;;;;;;4993062;28;20178;-82
2022/01/16 07:48:43;;;;;;;27.30;24.15;;;-0.20;72.80;;;;;;4992383;28;20185;-82
2022/01/16 07:51:09;;;;;;;24.77;22.37;;;-0.20;75.00;;;;;;4991827;28;20174;-82
2022/01/16 07:53:35;;;;;;;31.10;28.20;;;-0.20;77.60;;;;;;4992160;28;20442;-82
2022/01/16 07:56:01;;;;;;;27.80;25.00;;;0.10;75.20;;;;;;4992175;28;20417;-80
2022/01/16 07:58:26;;;;;;;28.20;23.60;;;0.10;75.70;;;;;;4992006;28;20277;-81
2022/01/16 08:00:52;;;;;;;27.77;24.77;;;0.20;76.40;;;;;;4992878;28;20174;-82
2022/01/16 08:03:18;;;;;;;24.67;22.20;;;0.30;75.10;;;;;;4992861;28;20862;-81
2022/01/16 08:05:43;;;;;;;25.13;22.60;;;0.40;72.50;;;;;;4993029;28;20187;-83
2022/01/16 08:08:09;;;;;;;28.37;25.60;;;0.20;73.20;;;;;;4994216;28;20173;-82
2022/01/16 08:10:35;;;;;;;24.10;21.47;;;0.30;73.30;;;;;;4992467;28;20171;-80
2022/01/16 08:13:00;;;;;;;25.03;22.37;;;0.10;69.50;;;;;;4991856;28;20639;-77
2022/01/16 08:15:26;;;;;;;30.20;25.83;;;0.00;72.10;;;;;;4992334;28;20632;-80
2022/01/16 08:17:52;;;;;;;28.87;25.87;;;0.00;75.10;;;;;;4991938;28;20170;-78
2022/01/16 08:20:18;;;;;;;26.67;24.00;;;0.20;74.60;;;;;;4991339;28;20905;-78
2022/01/16 08:22:45;;;;;;;26.17;23.50;;;0.10;73.80;;;;;;4992461;28;20409;-80
2022/01/16 08:25:12;;;;;;;26.98;24.17;;;0.10;74.00;;;;;;4991057;28;20422;-77
2022/01/16 08:27:37;;;;;;;27.27;24.33;;;0.10;72.80;;;;;;4993556;28;20174;-78
2022/01/16 08:30:07;;;;;;;26.90;24.10;;;-0.20;73.70;;;;;;4996212;28;20190;-78
2022/01/16 08:32:32;;;;;;;28.52;25.52;;;-0.20;75.90;;;;;;5010721;28;20178;-78
2022/01/16 08:34:59;;;;;;;29.00;26.10;;;-0.10;75.10;;;;;;5003355;28;20189;-78
2022/01/16 08:37:25;;;;;;;26.35;23.60;;;-0.10;74.00;;;;;;5011316;28;20417;-78
2022/01/16 08:39:50;;;;;;;26.30;23.60;;;-0.20;73.30;;;;;;5010274;28;20799;-78
2022/01/16 08:42:16;;;;;;;28.60;25.67;;;-0.50;74.50;;;;;;5010966;28;20223;-78
2022/01/16 08:44:42;;;;;;;28.43;25.43;;;-0.40;75.90;;;;;;5011236;28;20334;-78
2022/01/16 08:47:09;;;;;;;30.00;26.80;;;-0.30;74.50;;;;;;5010398;28;20221;-77
2022/01/16 08:49:35;;;;;;;29.98;26.83;;;-0.40;75.60;;;;;;5010890;28;20191;-78
2022/01/16 08:52:02;;;;;;;30.20;27.05;;;-0.20;76.60;;;;;;5011839;28;20182;-79
2022/01/16 08:54:28;;;;;;;30.02;26.02;;;0.10;77.00;;;;;;5010749;28;20197;-78
2022/01/16 08:56:54;;;;;;;27.38;24.48;;;0.20;72.50;;;;;;5010674;28;20209;-78
2022/01/16 08:59:20;;;;;;;27.80;24.87;;;0.10;73.10;;;;;;5010426;28;20253;-77
2022/01/16 09:01:46;;;;;;;28.73;25.83;;;0.10;73.10;;;;;;5010982;28;20474;-80
2022/01/16 09:04:12;;;;;;;27.00;24.13;;;0.20;71.10;;;;;;5011234;28;20179;-77
2022/01/16 09:06:37;;;;;;;26.00;23.30;;;0.00;71.20;;;;;;5001543;28;20595;-78
2022/01/16 09:09:03;;;;;;;71.60;62.27;;;0.00;71.60;;;;;;5001740;28;20587;-78
2022/01/16 09:11:29;;;;;;;30.03;26.90;;;0.00;71.70;;;;;;5010760;28;20239;-77
2022/01/16 09:13:55;;;;;;;26.70;24.03;;;0.20;71.60;;;;;;5010903;28;20285;-78
2022/01/16 09:16:21;;;;;;;27.95;25.10;;;0.20;71.70;;;;;;5010882;28;20189;-78
2022/01/16 09:18:48;;;;;;;28.65;25.60;;;0.40;72.60;;;;;;5007581;28;20772;-78
2022/01/16 09:21:18;;;;;;;26.50;23.95;;;0.40;71.30;;;;;;5005081;28;20557;-79
2022/01/16 09:23:45;;;;;;;28.25;25.25;;;0.60;71.10;;;;;;5010912;28;20188;-79
2022/01/16 09:26:10;;;;;;;24.25;21.85;;;0.70;70.80;;;;;;5010762;28;20227;-78
2022/01/16 09:28:36;;;;;;;26.93;24.33;;;0.70;69.20;;;;;;5010730;28;20271;-78
2022/01/16 09:31:02;;;;;;;27.93;24.93;;;0.80;68.80;;;;;;5010749;28;20194;-79
2022/01/16 09:33:28;;;;;;;25.90;23.13;;;0.90;68.00;;;;;;5010336;28;20239;-79
2022/01/16 09:35:54;;;;;;;24.40;22.00;;;0.90;68.10;;;;;;5010158;28;20431;-79
2022/01/16 09:38:22;;;;;;;24.75;22.23;;;1.00;67.90;;;;;;5010694;28;20239;-79
2022/01/16 09:40:49;;;;;;;25.40;22.95;;;1.00;65.90;;;;;;5010352;28;20180;-79
2022/01/16 09:43:16;;;;;;;26.17;23.40;;;1.10;66.60;;;;;;5011859;28;20179;-77
2022/01/16 09:45:42;;;;;;;23.67;21.27;;;1.20;66.80;;;;;;5010517;28;20319;-79
2022/01/16 09:48:07;;;;;;;24.70;22.10;;;1.10;64.10;;;;;;5010151;28;20274;-78
2022/01/16 09:50:34;;;;;;;25.87;23.37;;;1.00;65.30;;;;;;5010408;28;20422;-78
2022/01/16 09:53:04;;;;;;;26.17;23.38;;;0.80;66.20;;;;;;5010029;28;20216;-80
2022/01/16 09:55:29;;;;;;;27.23;24.38;;;0.90;67.00;;;;;;5010590;28;20174;-78
2022/01/16 09:57:57;;;;;;;26.20;23.63;;;0.90;67.90;;;;;;5010689;28;20173;-79
2022/01/16 10:00:24;;;;;;;28.40;23.45;;;0.90;65.50;;;;;;5010318;28;20212;-78
2022/01/16 10:02:59;;;;;;;25.60;23.00;;;1.00;66.00;;;;;;5010835;28;20589;-80
2022/01/16 10:05:31;;;;;;;25.55;23.05;;;1.10;65.90;;;;;;5010810;28;20209;-79
2022/01/16 10:07:59;;;;;;;25.05;22.45;;;1.30;66.40;;;;;;5010527;28;20177;-77
2022/01/16 10:10:28;;;;;;;25.08;22.63;;;1.20;65.70;;;;;;5010692;28;20197;-79
2022/01/16 10:13:03;;;;;;;24.95;22.48;;;1.30;66.10;;;;;;5010654;28;20657;-81
2022/01/16 10:15:29;;;;;;;25.95;22.83;;;1.50;67.00;;;;;;5010789;28;20170;-85
2022/01/16 10:17:56;;;;;;;33.10;29.50;;;1.50;64.50;;;;;;5011493;28;20175;-84
2022/01/16 10:20:24;;;;;;;26.63;24.02;;;1.50;64.90;;;;;;5011309;28;20216;-83
2022/01/16 10:22:55;;;;;;;27.83;25.00;;;1.50;64.60;;;;;;5013484;28;20632;-86
2022/01/16 10:25:45;;;;;;;26.92;24.13;;;1.60;65.20;;;;;;5015310;28;20165;-86
2022/01/16 10:28:19;;;;;;;25.73;22.80;;;1.70;64.70;;;;;;5015268;28;20523;-86
2022/01/16 10:30:52;;;;;;;23.63;20.85;;;1.60;63.10;;;;;;5014619;28;20916;-83
2022/01/16 10:33:24;;;;;;;26.52;23.88;;;1.50;63.70;;;;;;5014706;28;20687;-87
2022/01/16 10:35:52;;;;;;;26.00;23.35;;;1.60;64.00;;;;;;5014350;28;20175;-86
2022/01/16 10:38:28;;;;;;;28.40;22.85;;;1.70;63.20;;;;;;5014565;28;20182;-87
2022/01/16 10:40:57;;;;;;;26.27;23.58;;;1.70;63.70;;;;;;5015831;28;20153;-83
2022/01/16 10:43:44;;;;;;;25.20;22.60;;;1.80;63.50;;;;;;5015044;28;20169;-85
2022/01/16 10:46:11;;;;;;;31.65;28.42;;;1.90;62.30;;;;;;5014550;28;20184;-86
2022/01/16 10:48:37;;;;;;;24.30;21.70;;;1.90;62.70;;;;;;5014710;28;20188;-83
2022/01/16 10:51:03;;;;;;;25.67;22.90;;;2.00;62.90;;;;;;5014493;28;20420;-88
2022/01/16 10:53:32;;;;;;;26.80;24.00;;;2.00;62.40;;;;;;5015098;28;20557;-84
2022/01/16 10:56:02;;;;;;;25.52;22.83;;;1.90;62.40;;;;;;5014868;28;20174;-86
2022/01/16 10:58:37;;;;;;;26.80;23.60;;;2.10;62.10;;;;;;5016162;28;20596;-87
2022/01/16 11:01:11;;;;;;;24.73;22.17;;;2.30;61.80;;;;;;5013355;28;20181;-85
2022/01/16 11:03:47;;;;;;;25.50;22.92;;;2.20;61.00;;;;;;5014560;28;20202;-86
2022/01/16 11:06:21;;;;;;;26.58;23.88;;;2.10;61.80;;;;;;5014346;28;20177;-85
2022/01/16 11:08:57;;;;;;;26.90;24.00;;;2.20;61.20;;;;;;5015145;28;20227;-83
2022/01/16 11:11:27;;;;;;;29.10;25.88;;;2.20;61.80;;;;;;5015612;28;20186;-84
2022/01/16 11:13:54;;;;;;;25.70;23.00;;;2.20;62.00;;;;;;5016520;28;20162;-85
2022/01/16 11:16:22;;;;;;;27.98;25.10;;;2.30;62.20;;;;;;5015012;28;20750;-86
2022/01/16 11:18:50;;;;;;;25.77;23.15;;;2.30;62.10;;;;;;5014534;28;20209;-80
2022/01/16 11:21:31;;;;;;;26.70;24.00;;;2.50;62.60;;;;;;5015089;28;20179;-85
2022/01/16 11:24:26;;;;;;;27.93;24.93;;;2.60;62.40;;;;;;5015377;28;20245;-84
2022/01/16 11:26:53;;;;;;;25.55;22.85;;;2.60;61.90;;;;;;5014330;28;20400;-84
2022/01/16 11:29:18;;;;;;;28.43;25.43;;;2.60;62.60;;;;;;5014898;28;20183;-82
2022/01/16 11:31:48;;;;;;;27.40;23.50;;;2.70;62.90;;;;;;5014522;28;20431;-86
2022/01/16 11:34:13;;;;;;;47.30;35.70;;;2.80;63.70;;;;;;5014177;28;20177;-86
2022/01/16 11:36:40;;;;;;;29.20;25.97;;;2.90;63.60;;;;;;5014837;28;20430;-86
2022/01/16 11:39:09;;;;;;;31.73;25.60;;;2.90;64.30;;;;;;5014736;28;20247;-85
2022/01/16 11:41:46;;;;;;;27.97;24.60;;;2.90;64.00;;;;;;5015656;28;20447;-86
2022/01/16 11:44:49;;;;;;;30.25;24.27;;;2.90;63.90;;;;;;5014791;28;20426;-86
2022/01/16 11:47:15;;;;;;;30.80;24.47;;;2.90;64.00;;;;;;5005627;28;20195;-87
2022/01/16 11:49:42;;;;;;;29.50;25.37;;;3.00;64.70;;;;;;5014801;28;20908;-85
2022/01/16 11:52:13;;;;;;;27.33;23.27;;;3.00;65.00;;;;;;5013851;28;20252;-85
2022/01/16 11:54:44;;;;;;;34.70;25.38;;;3.00;65.10;;;;;;5013774;28;20225;-85
2022/01/16 11:57:18;;;;;;;27.93;24.50;;;3.10;65.10;;;;;;5013356;28;20177;-86
2022/01/16 11:59:44;;;;;;;29.80;23.60;;;3.10;65.90;;;;;;5013086;28;20456;-85
2022/01/16 12:02:10;;;;;;;30.25;24.25;;;3.00;65.90;;;;;;5013809;28;20408;-85
2022/01/16 12:04:38;;;;;;;27.83;24.57;;;3.10;66.90;;;;;;5013686;28;20228;-85
2022/01/16 12:07:13;;;;;;;32.77;26.03;;;3.20;66.50;;;;;;5013587;28;20173;-86
2022/01/16 12:12:12;;;;;;;28.60;23.40;;;3.10;66.00;;;;;;5014883;28;20165;-85
2022/01/16 12:14:47;;;;;;;32.70;23.50;;;3.20;66.10;;;;;;5013275;28;20951;-86
2022/01/16 12:17:33;;;;;;;29.67;23.20;;;3.10;66.00;;;;;;5013139;28;20470;-86
2022/01/16 12:20:11;;;;;;;28.73;23.00;;;3.20;66.00;;;;;;5013037;28;20460;-89
2022/01/16 12:23:01;;;;;;;28.40;22.87;;;3.20;66.00;;;;;;5014314;28;20423;-87
2022/01/16 12:25:56;;;;;;;28.30;22.00;;;3.20;64.90;;;;;;5013972;28;20408;-86
2022/01/16 12:28:42;;;;;;;25.07;21.17;;;3.20;65.00;;;;;;5013955;28;20420;-85
2022/01/16 12:31:32;;;;;;;27.60;22.27;;;3.30;66.10;;;;;;5011519;28;20805;-85
2022/01/16 12:34:01;;;;;;;27.00;21.60;;;3.30;65.90;;;;;;4993498;28;20419;-83
2022/01/16 12:36:34;;;;;;;21.53;18.60;;;3.30;65.40;;;;;;4993553;28;20475;-85
2022/01/16 12:39:06;;;;;;;20.70;17.23;;;3.40;64.90;;;;;;4992768;28;20460;-84
2022/01/16 12:41:39;;;;;;;17.87;15.40;;;3.50;61.40;;;;;;4993699;28;20933;-83
2022/01/16 12:44:17;;;;;;;19.33;14.40;;;3.60;61.80;;;;;;4992724;28;20905;-84
2022/01/16 12:46:45;;;;;;;20.60;15.32;;;3.60;60.40;;;;;;4992659;28;20940;-84
2022/01/16 12:49:19;;;;;;;14.65;13.10;;;3.70;59.80;;;;;;4992850;28;20213;-84
2022/01/16 12:51:48;;;;;;;15.60;12.87;;;3.70;59.90;;;;;;4992754;28;20185;-83
2022/01/16 12:54:23;;;;;;;17.20;13.90;;;3.70;59.20;;;;;;4992218;28;20556;-84
2022/01/16 12:56:51;;;;;;;15.87;12.07;;;3.70;58.70;;;;;;5001020;28;20445;-85
2022/01/16 12:59:23;;;;;;;17.50;13.50;;;3.80;58.30;;;;;;5012259;28;20460;-83
2022/01/16 13:01:55;;;;;;;16.13;13.53;;;3.80;58.30;;;;;;5012528;28;20443;-84
2022/01/16 13:04:44;;;;;;;14.47;12.90;;;3.80;58.40;;;;;;5012736;28;20408;-88
2022/01/16 13:07:12;;;;;;;14.13;12.57;;;3.90;58.70;;;;;;5013092;28;20420;-90
2022/01/16 13:09:42;;;;;;;15.83;12.40;;;3.80;58.40;;;;;;5013901;28;20427;-88
2022/01/16 13:12:22;;;;;;;14.50;11.87;;;3.80;58.00;;;;;;5014922;28;20510;-89
2022/01/16 13:15:00;;;;;;;16.53;13.07;;;3.90;58.80;;;;;;5012984;28;20423;-89
2022/01/16 13:17:38;;;;;;;14.37;11.40;;;3.90;57.70;;;;;;5013908;28;20787;-89
2022/01/16 13:20:13;;;;;;;14.00;11.70;;;3.90;57.70;;;;;;5013721;28;20462;-88
2022/01/16 13:22:39;;;;;;;14.00;12.60;;;3.90;57.80;;;;;;5012518;28;20403;-88
2022/01/16 13:25:07;;;;;;;16.30;13.20;;;3.90;57.40;;;;;;5012572;28;20427;-88